createdAt,value
2022-10-11T05:01:10.419Z,13.7
2022-10-11T05:07:22.036Z,20.6
2022-10-11T05:13:22.680Z,19.6
2022-10-11T05:19:17.036Z,19
2022-10-11T05:25:20.319Z,16.2
2022-10-11T05:31:27.984Z,16.1
2022-10-11T05:37:24.931Z,16.7
2022-10-11T05:43:17.431Z,17.9
2022-10-11T05:49:10.461Z,14.6
2022-10-11T05:55:10.439Z,17.4
2022-10-11T06:01:12.696Z,19.9
2022-10-11T06:07:06.791Z,19.6
2022-10-11T06:13:05.308Z,21.1
2022-10-11T06:19:22.706Z,25.3
2022-10-11T06:25:26.370Z,34
2022-10-11T06:31:24.246Z,37.9
2022-10-11T06:37:21.551Z,34
2022-10-11T06:43:28.720Z,38.6
2022-10-11T06:49:32.063Z,61.3
2022-10-11T07:08:26.313Z,55.1
2022-10-11T07:14:53.552Z,51.2
2022-10-11T07:20:49.605Z,76.4
2022-10-11T07:27:22.566Z,75.9
2022-10-11T07:33:25.330Z,75.5
2022-10-11T07:39:47.301Z,72.8
2022-10-11T07:45:44.950Z,75.6
2022-10-11T07:52:04.262Z,66.5
2022-10-11T07:58:10.405Z,67.8
2022-10-11T08:04:06.003Z,71.1
2022-10-11T08:17:08.302Z,68.3
2022-10-11T08:29:58.276Z,74.4
2022-10-11T08:42:29.538Z,37
2022-10-11T08:48:45.962Z,37.1
2022-10-11T08:54:52.027Z,34.6
2022-10-11T09:01:06.720Z,33
2022-10-11T09:07:49.071Z,32.9
2022-10-11T09:13:57.784Z,38.5
2022-10-11T09:32:56.262Z,35.7
2022-10-11T09:39:06.975Z,39.9
2022-10-11T09:45:00.784Z,33.1
2022-10-11T09:50:51.808Z,33.8
2022-10-11T09:56:48.899Z,30.8
2022-10-11T10:02:52.718Z,24.7
2022-10-11T10:08:44.816Z,26.3
2022-10-11T10:14:44.286Z,25.6
2022-10-11T10:20:36.057Z,28.8
2022-10-11T10:26:32.985Z,27.8
2022-10-11T10:32:33.121Z,27.7
2022-10-11T10:44:36.577Z,28.3
2022-10-11T10:50:33.401Z,29.3
2022-10-11T10:56:26.355Z,31.2
2022-10-11T11:02:45.184Z,24.2
2022-10-11T11:08:36.050Z,28.8
2022-10-11T19:55:58.469Z,23.1
2022-10-11T22:39:36.822Z,14.8
2022-10-11T22:45:29.735Z,16.6
2022-10-11T22:51:32.713Z,14.9
2022-10-11T22:57:30.785Z,19.2
2022-10-11T23:03:27.491Z,15.9
2022-10-11T23:09:32.599Z,14.1
2022-10-11T23:15:33.147Z,15.2
2022-10-11T23:21:25.095Z,13.4
2022-10-11T23:27:20.270Z,14.9
2022-10-11T23:33:24.623Z,16.1
2022-10-11T23:39:24.672Z,15.5
2022-10-11T23:45:27.560Z,12
2022-10-11T23:51:25.788Z,14.6
